Time;durP1;ratioP1;P1;durP2;ratioP2;P2;SDS_P1;SDS_P2;PMS_P1;PMS_P2;Temp;Humidity;BMP_temperature;BMP_pressure;BME280_temperature;BME280_humidity;BME280_pressure;Samples;Min_cycle;Max_cycle;Signal;HPM_P1;HPM_P2
2021/11/25 00:00:41;;;;;;;58.58;28.15;;;;;;;-3.36;81.11;98354.19;1667410;86;21471;-76
2021/11/25 00:03:09;;;;;;;66.12;30.08;;;;;;;-3.39;81.15;98359.30;1675546;86;21085;-76
2021/11/25 00:05:37;;;;;;;70.32;29.48;;;;;;;-3.38;81.02;98357.17;1676250;84;20990;-76
2021/11/25 00:08:05;;;;;;;68.42;30.10;;;;;;;-3.39;81.13;98359.30;1669567;86;21026;-76
2021/11/25 00:10:33;;;;;;;64.05;28.77;;;;;;;-3.39;81.03;98363.19;1669995;86;21483;-76
2021/11/25 00:13:00;;;;;;;59.13;26.95;;;;;;;-3.40;80.83;98358.84;1669378;86;21088;-76
2021/11/25 00:15:27;;;;;;;63.45;28.30;;;;;;;-3.46;80.80;98360.81;1671859;85;21049;-76
2021/11/25 00:17:54;;;;;;;57.58;27.42;;;;;;;-3.43;80.97;98367.80;1676236;85;21486;-76
2021/11/25 00:20:21;;;;;;;61.28;27.87;;;;;;;-3.46;80.89;98356.03;1653100;84;21030;-76
2021/11/25 00:22:48;;;;;;;62.38;28.80;;;;;;;-3.51;80.87;98357.59;1679330;85;21038;-76
2021/11/25 00:25:17;;;;;;;64.97;29.12;;;;;;;-3.53;80.93;98357.54;1682881;84;21002;-76
2021/11/25 00:27:43;;;;;;;59.00;27.98;;;;;;;-3.54;81.00;98354.92;1687259;84;21061;-76
2021/11/25 00:30:11;;;;;;;55.23;26.55;;;;;;;-3.53;81.24;98339.40;1687341;85;21077;-76
2021/11/25 00:32:40;;;;;;;57.15;26.30;;;;;;;-3.57;80.93;98347.93;1689035;84;21009;-76
2021/11/25 00:35:10;;;;;;;57.88;27.95;;;;;;;-3.59;81.04;98350.47;1679896;84;21022;-77
2021/11/25 00:37:39;;;;;;;55.95;25.70;;;;;;;-3.59;80.93;98346.98;1671144;86;21046;-76
2021/11/25 00:40:10;;;;;;;58.35;25.85;;;;;;;-3.64;80.95;98345.55;1673121;85;21041;-76
2021/11/25 00:42:37;;;;;;;59.25;27.35;;;;;;;-3.66;80.84;98337.27;1674263;85;22136;-77
2021/11/25 00:45:05;;;;;;;57.00;25.82;;;;;;;-3.69;80.90;98336.75;1669644;85;21101;-77
2021/11/25 00:47:31;;;;;;;58.78;27.05;;;;;;;-3.70;80.89;98327.20;1660829;86;21081;-77
2021/11/25 00:49:58;;;;;;;60.98;27.13;;;;;;;-3.72;81.75;98327.17;1677513;85;21006;-77
2021/11/25 00:52:26;;;;;;;57.40;26.85;;;;;;;-3.79;81.75;98321.30;1671458;85;20986;-77
2021/11/25 00:54:54;;;;;;;56.35;26.45;;;;;;;-3.79;81.28;98319.16;1669324;86;21109;-77
2021/11/25 00:57:20;;;;;;;53.20;25.97;;;;;;;-3.82;81.11;98324.22;1669355;86;20994;-77
2021/11/25 00:59:47;;;;;;;58.50;25.90;;;;;;;-3.85;81.25;98321.98;1669099;86;21046;-77
2021/11/25 01:02:15;;;;;;;61.33;25.32;;;;;;;-3.80;81.18;98318.66;1668595;86;21475;-77
2021/11/25 01:04:41;;;;;;;51.58;25.45;;;;;;;-3.85;81.15;98316.80;1669285;86;21069;-77
2021/11/25 01:07:10;;;;;;;54.38;25.60;;;;;;;-3.83;81.26;98312.97;1645944;85;21010;-76
2021/11/25 01:09:39;;;;;;;55.95;25.50;;;;;;;-3.86;81.08;98313.75;1640379;87;21069;-76
2021/11/25 01:12:07;;;;;;;56.23;24.77;;;;;;;-3.90;81.66;98305.84;1655226;84;21419;-76
2021/11/25 01:14:36;;;;;;;49.38;23.87;;;;;;;-3.89;81.68;98303.31;1678358;85;21407;-76
2021/11/25 01:17:04;;;;;;;57.17;24.70;;;;;;;-3.88;81.37;98303.77;1684045;84;21033;-76
2021/11/25 01:19:30;;;;;;;52.88;24.85;;;;;;;-3.88;81.45;98306.36;1684494;84;20993;-76
2021/11/25 01:21:57;;;;;;;50.50;23.25;;;;;;;-3.89;81.58;98310.19;1684418;85;21050;-76
2021/11/25 01:24:24;;;;;;;55.33;25.15;;;;;;;-3.92;81.32;98310.96;1682765;83;20998;-76
2021/11/25 01:26:51;;;;;;;57.53;24.70;;;;;;;-3.94;81.29;98310.45;1671351;83;21404;-76
2021/11/25 01:29:18;;;;;;;54.83;25.68;;;;;;;-3.99;81.26;98311.60;1669665;85;21427;-76
2021/11/25 01:31:45;;;;;;;49.90;24.25;;;;;;;-4.00;81.22;98300.35;1669114;85;21109;-76
2021/11/25 01:34:11;;;;;;;52.23;23.95;;;;;;;-3.99;81.29;98303.83;1672721;83;20967;-76
2021/11/25 01:36:39;;;;;;;57.85;24.75;;;;;;;-4.00;81.27;98305.94;1681119;85;21036;-76
2021/11/25 01:39:06;;;;;;;52.78;23.55;;;;;;;-4.00;81.20;98304.23;1676936;84;21053;-77
2021/11/25 01:41:34;;;;;;;53.15;23.42;;;;;;;-4.00;81.22;98305.94;1670800;85;20971;-76
2021/11/25 01:44:01;;;;;;;51.73;23.90;;;;;;;-4.00;81.31;98302.05;1670872;85;21001;-76
2021/11/25 01:46:27;;;;;;;50.30;23.60;;;;;;;-4.03;81.26;98293.77;1683451;84;20991;-76
2021/11/25 01:48:53;;;;;;;49.88;24.02;;;;;;;-4.03;81.22;98295.06;1679284;85;21006;-76
2021/11/25 01:51:24;;;;;;;47.27;22.13;;;;;;;-4.07;81.22;98293.63;1669415;85;21017;-76
2021/11/25 01:53:51;;;;;;;55.43;23.62;;;;;;;-4.14;81.30;98290.84;1670465;85;21116;-76
2021/11/25 01:56:19;;;;;;;55.20;23.70;;;;;;;-4.14;81.29;98293.42;1662613;85;21002;-76
2021/11/25 01:58:47;;;;;;;48.52;23.07;;;;;;;-4.17;81.22;98287.24;1669580;85;21014;-77
2021/11/25 02:01:18;;;;;;;54.73;23.38;;;;;;;-4.18;81.29;98288.08;1669216;85;21108;-77
2021/11/25 02:03:47;;;;;;;45.88;22.32;;;;;;;-4.21;81.16;98282.38;1679523;84;21009;-77
2021/11/25 02:06:16;;;;;;;45.45;21.30;;;;;;;-4.24;81.25;98288.73;1669147;85;21069;-77
2021/11/25 02:08:43;;;;;;;48.40;23.45;;;;;;;-4.24;81.13;98284.86;1676264;85;20985;-76
2021/11/25 02:11:10;;;;;;;51.02;21.95;;;;;;;-4.27;81.20;98282.19;1669056;85;21045;-76
2021/11/25 02:13:37;;;;;;;50.35;22.30;;;;;;;-4.29;81.28;98282.53;1656446;86;20957;-76
2021/11/25 02:16:04;;;;;;;46.83;21.33;;;;;;;-4.27;81.36;98277.01;1669403;85;20983;-76
2021/11/25 02:18:31;;;;;;;46.20;20.95;;;;;;;-4.28;81.26;98272.23;1672474;85;21033;-76
2021/11/25 02:21:01;;;;;;;45.03;20.75;;;;;;;-4.30;81.20;98281.67;1683660;84;21017;-76
2021/11/25 02:23:28;;;;;;;51.15;21.15;;;;;;;-4.33;81.16;98276.38;1683986;85;21463;-76
2021/11/25 02:25:56;;;;;;;46.75;20.68;;;;;;;-4.35;81.08;98279.73;1683118;85;21034;-76
2021/11/25 02:28:28;;;;;;;45.52;21.12;;;;;;;-4.39;81.10;98280.05;1676581;85;21053;-76
2021/11/25 02:30:56;;;;;;;47.55;20.52;;;;;;;-4.40;81.27;98279.16;1678709;85;21073;-76
2021/11/25 02:33:22;;;;;;;47.27;20.72;;;;;;;-4.40;81.11;98266.22;1669118;85;21399;-76
2021/11/25 02:35:49;;;;;;;45.55;20.65;;;;;;;-4.42;81.39;98274.36;1669171;86;21018;-77
2021/11/25 02:38:17;;;;;;;48.75;20.43;;;;;;;-4.44;81.85;98270.82;1668789;85;21475;-77
2021/11/25 02:40:48;;;;;;;38.30;19.00;;;;;;;-4.43;81.72;98271.72;1668710;86;21034;-77
2021/11/25 02:43:19;;;;;;;42.50;18.77;;;;;;;-4.45;81.60;98271.66;1668867;86;21241;-77
2021/11/25 02:45:52;;;;;;;48.23;20.25;;;;;;;-4.46;81.49;98261.25;1687031;85;20966;-77
2021/11/25 02:48:24;;;;;;;47.08;19.98;;;;;;;-4.47;82.21;98260.39;1689707;84;21073;-78
2021/11/25 02:50:53;;;;;;;43.40;19.73;;;;;;;-4.46;81.68;98254.78;1691589;84;21449;-78
2021/11/25 02:53:24;;;;;;;46.08;19.48;;;;;;;-4.48;81.49;98259.92;1676755;85;21084;-78
2021/11/25 02:55:58;;;;;;;47.83;21.20;;;;;;;-4.51;81.48;98258.52;1671288;85;21033;-78
2021/11/25 02:58:25;;;;;;;43.73;20.52;;;;;;;-4.53;81.40;98253.28;1691781;85;20970;-77
2021/11/25 03:00:54;;;;;;;44.50;20.12;;;;;;;-4.52;81.46;98242.53;1693220;85;20998;-77
2021/11/25 03:03:21;;;;;;;44.08;21.12;;;;;;;-4.55;81.29;98238.53;1692523;85;21017;-78
2021/11/25 03:05:50;;;;;;;46.95;21.40;;;;;;;-4.59;81.20;98234.97;1692807;85;21227;-77
2021/11/25 03:08:21;;;;;;;50.83;21.05;;;;;;;-4.62;81.23;98241.75;1692620;85;21111;-77
2021/11/25 03:11:04;;;;;;;46.30;21.23;;;;;;;-4.60;81.58;98238.39;1666021;84;20946;-77
2021/11/25 03:13:35;;;;;;;48.23;20.50;;;;;;;-4.60;81.58;98236.20;1672082;85;21073;-75
2021/11/25 03:16:02;;;;;;;45.65;21.82;;;;;;;-4.63;81.59;98236.98;1683678;85;20989;-76
2021/11/25 03:18:30;;;;;;;47.08;20.20;;;;;;;-4.59;81.53;98228.91;1684010;83;21427;-76
2021/11/25 03:20:58;;;;;;;45.17;21.00;;;;;;;-4.71;81.46;98228.06;1681657;83;21004;-77
2021/11/25 03:23:28;;;;;;;43.40;18.77;;;;;;;-4.74;82.21;98223.66;1669533;85;21009;-76
2021/11/25 03:26:00;;;;;;;47.53;20.30;;;;;;;-4.75;81.82;98219.33;1669440;86;21077;-77
2021/11/25 03:28:28;;;;;;;46.00;20.65;;;;;;;-4.78;81.62;98223.08;1669368;86;21010;-76
2021/11/25 03:30:56;;;;;;;40.85;19.05;;;;;;;-4.81;81.76;98226.88;1670654;85;21419;-77
2021/11/25 03:33:29;;;;;;;43.70;20.50;;;;;;;-4.77;81.86;98217.97;1679009;85;21022;-76
2021/11/25 03:36:01;;;;;;;42.40;19.73;;;;;;;-4.78;81.58;98217.91;1680077;85;21077;-76
2021/11/25 03:38:29;;;;;;;43.78;20.52;;;;;;;-4.79;81.60;98217.45;1683265;85;21844;-76
2021/11/25 03:40:56;;;;;;;44.98;19.85;;;;;;;-4.79;82.07;98216.16;1683041;85;21048;-76
2021/11/25 03:43:24;;;;;;;40.73;18.25;;;;;;;-4.77;81.62;98215.82;1678879;85;21013;-76
2021/11/25 03:45:51;;;;;;;39.55;18.32;;;;;;;-4.82;81.63;98210.47;1665146;85;21053;-76
2021/11/25 03:48:23;;;;;;;41.48;19.50;;;;;;;-4.87;81.62;98210.72;1681921;85;21000;-76
2021/11/25 03:50:50;;;;;;;38.00;18.37;;;;;;;-4.84;81.67;98204.38;1680601;85;21029;-76
2021/11/25 03:53:17;;;;;;;44.73;19.42;;;;;;;-4.88;81.64;98199.92;1642934;87;21014;-76
2021/11/25 03:55:44;;;;;;;37.58;17.62;;;;;;;-4.85;81.69;98205.61;1655985;85;21479;-76
2021/11/25 03:58:10;;;;;;;41.18;18.60;;;;;;;-4.84;81.87;98204.78;1655760;86;21065;-76
2021/11/25 04:00:38;;;;;;;44.08;18.60;;;;;;;-4.85;81.77;98192.69;1655758;87;21050;-76
2021/11/25 04:03:05;;;;;;;48.78;20.00;;;;;;;-4.82;81.73;98194.09;1645944;85;21045;-76
2021/11/25 04:05:34;;;;;;;39.85;18.02;;;;;;;-4.85;81.60;98194.87;1682859;85;21036;-76
2021/11/25 04:08:01;;;;;;;38.48;18.87;;;;;;;-4.84;81.62;98194.03;1675741;85;21085;-76
2021/11/25 04:10:28;;;;;;;38.13;17.52;;;;;;;-4.87;81.50;98191.77;1665430;85;20998;-76
2021/11/25 04:12:55;;;;;;;42.95;19.37;;;;;;;-4.93;81.64;98191.12;1669386;85;20954;-76
2021/11/25 04:15:21;;;;;;;42.60;19.23;;;;;;;-4.92;81.56;98195.06;1661447;86;21462;-76
2021/11/25 04:17:48;;;;;;;37.83;17.55;;;;;;;-4.93;81.54;98201.06;1657220;85;21513;-76
2021/11/25 04:20:16;;;;;;;39.00;17.40;;;;;;;-4.92;81.71;98198.05;1657752;85;21077;-76
2021/11/25 04:22:44;;;;;;;42.27;18.37;;;;;;;-4.86;81.85;98198.69;1657449;84;21021;-76
2021/11/25 04:25:11;;;;;;;46.75;19.75;;;;;;;-4.90;81.65;98197.70;1671838;85;21447;-77
2021/11/25 04:27:38;;;;;;;57.55;27.25;;;;;;;-4.90;81.54;98197.70;1661848;85;21030;-77
2021/11/25 04:30:24;;;;;;;62.70;28.92;;;;;;;-4.97;81.40;98190.14;1669058;84;21467;-77
2021/11/25 04:35:34;;;;;;;48.35;22.07;;;;;;;-5.01;81.41;98185.69;1691131;85;20997;-76
2021/11/25 04:38:12;;;;;;;44.00;19.62;;;;;;;-5.05;81.53;98184.70;1690420;84;21490;-76
2021/11/25 04:40:44;;;;;;;45.40;20.35;;;;;;;-5.07;81.53;98178.59;1689179;83;21048;-76
2021/11/25 04:43:11;;;;;;;53.10;21.62;;;;;;;-5.09;81.53;98183.23;1689835;84;21033;-76
2021/11/25 04:45:42;;;;;;;47.83;22.62;;;;;;;-5.08;81.49;98184.98;1687920;85;20978;-76
2021/11/25 04:48:12;;;;;;;49.95;22.62;;;;;;;-5.09;81.39;98187.11;1646031;84;21035;-76
2021/11/25 04:50:39;;;;;;;45.58;21.50;;;;;;;-5.12;81.44;98184.44;1673622;84;21013;-76
2021/11/25 04:53:10;;;;;;;47.73;21.48;;;;;;;-5.12;81.56;98181.42;1670543;84;21076;-77
2021/11/25 04:55:37;;;;;;;49.25;21.77;;;;;;;-5.09;81.67;98185.42;1676975;86;21037;-75
2021/11/25 04:58:04;;;;;;;47.40;20.40;;;;;;;-5.08;81.57;98183.30;1676879;86;21045;-75
2021/11/25 05:00:32;;;;;;;50.38;21.40;;;;;;;-5.07;81.68;98177.72;1676698;86;21029;-76
2021/11/25 05:02:58;;;;;;;43.10;20.02;;;;;;;-5.08;81.68;98174.25;1676862;85;21490;-76
2021/11/25 05:05:26;;;;;;;45.45;20.43;;;;;;;-5.10;81.54;98172.44;1652806;84;21211;-76
2021/11/25 05:07:53;;;;;;;45.92;21.42;;;;;;;-5.11;81.53;98169.39;1647923;86;21374;-76
2021/11/25 05:10:19;;;;;;;46.10;21.37;;;;;;;-5.11;81.55;98163.79;1648344;86;21006;-76
2021/11/25 05:12:46;;;;;;;43.70;19.57;;;;;;;-5.10;81.71;98168.16;1678903;85;21442;-76
2021/11/25 05:15:15;;;;;;;42.05;20.32;;;;;;;-5.07;81.57;98165.66;1679513;85;21418;-76
2021/11/25 05:17:42;;;;;;;40.98;19.00;;;;;;;-5.03;81.67;98167.94;1689765;84;20989;-76
2021/11/25 05:20:13;;;;;;;45.45;20.40;;;;;;;-4.96;81.69;98160.88;1674221;84;21479;-76
2021/11/25 05:22:43;;;;;;;41.77;18.48;;;;;;;-4.88;81.59;98162.44;1674588;85;21048;-76
2021/11/25 05:25:13;;;;;;;39.35;18.87;;;;;;;-4.85;81.65;98164.25;1676910;84;21061;-76
2021/11/25 05:27:40;;;;;;;39.70;19.05;;;;;;;-4.76;81.75;98160.69;1676537;84;21001;-76
2021/11/25 05:30:10;;;;;;;38.13;18.20;;;;;;;-4.70;81.63;98158.73;1648633;87;21034;-77
2021/11/25 05:32:38;;;;;;;36.13;16.40;;;;;;;-4.64;81.71;98157.64;1685585;84;20997;-76
2021/11/25 05:35:08;;;;;;;38.38;16.67;;;;;;;-4.61;81.59;98155.13;1689175;85;21026;-76
2021/11/25 05:37:38;;;;;;;37.33;15.65;;;;;;;-4.58;81.59;98156.54;1682638;84;21542;-76
2021/11/25 05:40:07;;;;;;;36.77;18.77;;;;;;;-4.52;81.56;98148.11;1698669;84;20992;-76
2021/11/25 05:42:35;;;;;;;41.00;18.12;;;;;;;-4.47;81.36;98154.31;1685351;84;21033;-76
2021/11/25 05:45:04;;;;;;;47.10;20.52;;;;;;;-4.43;81.46;98156.18;1677056;86;21041;-76
2021/11/25 05:47:34;;;;;;;34.83;16.75;;;;;;;-4.40;80.90;98164.45;1686048;84;20997;-76
2021/11/25 05:50:05;;;;;;;38.60;17.55;;;;;;;-4.39;81.12;98145.51;1690691;85;21438;-76
2021/11/25 05:52:32;;;;;;;36.70;17.15;;;;;;;-4.30;81.25;98157.45;1690903;85;21052;-78
2021/11/25 05:54:59;;;;;;;40.88;17.73;;;;;;;-4.24;81.13;98143.81;1690527;85;20993;-78
2021/11/25 05:57:25;;;;;;;40.05;18.73;;;;;;;-4.19;81.09;98157.77;1690763;85;20999;-78
2021/11/25 05:59:52;;;;;;;42.65;17.92;;;;;;;-4.11;80.88;98159.34;1681358;84;21013;-78
2021/11/25 06:02:20;;;;;;;38.58;17.87;;;;;;;-4.14;80.75;98161.42;1671804;85;20981;-77
2021/11/25 06:04:49;;;;;;;40.60;18.65;;;;;;;-4.14;80.77;98157.53;1677739;86;21041;-77
2021/11/25 06:07:16;;;;;;;42.20;17.25;;;;;;;-4.05;81.06;98162.11;1677737;86;21056;-77
2021/11/25 06:09:43;;;;;;;36.10;17.42;;;;;;;-3.99;81.11;98154.53;1677547;86;21005;-78
2021/11/25 06:12:10;;;;;;;39.00;16.82;;;;;;;-3.93;80.85;98149.96;1677420;84;21033;-77
2021/11/25 06:14:36;;;;;;;32.65;15.68;;;;;;;-3.88;81.14;98146.20;1658827;86;21022;-77
2021/11/25 06:17:03;;;;;;;39.67;18.73;;;;;;;-3.77;81.05;98141.36;1655411;85;20990;-78
2021/11/25 06:19:31;;;;;;;39.48;18.10;;;;;;;-3.69;80.89;98154.53;1685017;84;21010;-77
2021/11/25 06:21:59;;;;;;;38.45;16.48;;;;;;;-3.71;80.56;98150.20;1685424;84;21033;-77
2021/11/25 06:24:25;;;;;;;38.75;18.35;;;;;;;-3.66;80.51;98139.09;1677831;85;21376;-77
2021/11/25 06:26:53;;;;;;;38.05;18.65;;;;;;;-3.60;80.71;98143.16;1678620;85;21037;-78
2021/11/25 06:29:20;;;;;;;40.58;18.60;;;;;;;-3.50;80.86;98141.69;1686999;83;20997;-78
2021/11/25 06:31:46;;;;;;;47.48;20.57;;;;;;;-3.40;80.54;98143.74;1678381;85;21044;-78
2021/11/25 06:34:13;;;;;;;47.80;21.02;;;;;;;-3.39;81.10;98138.12;1651316;86;20990;-78
2021/11/25 06:36:40;;;;;;;44.77;20.68;;;;;;;-3.38;81.04;98134.69;1650965;87;21026;-78
2021/11/25 06:39:08;;;;;;;51.65;22.67;;;;;;;-3.34;80.76;98133.95;1669307;85;21391;-78
2021/11/25 06:41:34;;;;;;;52.45;24.23;;;;;;;-3.30;81.31;98130.61;1671001;84;20996;-78
2021/11/25 06:44:01;;;;;;;50.60;24.80;;;;;;;-3.23;81.29;98126.07;1681803;85;21501;-78
2021/11/25 06:46:27;;;;;;;51.70;25.35;;;;;;;-3.20;81.62;98124.84;1681373;85;21044;-78
2021/11/25 06:48:53;;;;;;;53.85;26.20;;;;;;;-3.13;81.41;98125.00;1682290;83;21002;-78
2021/11/25 06:51:22;;;;;;;52.10;24.50;;;;;;;-3.07;81.31;98122.16;1681761;84;21273;-78
2021/11/25 06:53:48;;;;;;;59.93;25.97;;;;;;;-3.03;81.08;98126.14;1686658;84;21077;-77
2021/11/25 06:56:15;;;;;;;59.03;27.40;;;;;;;-2.99;80.96;98112.42;1678211;85;21021;-77
2021/11/25 06:58:43;;;;;;;69.12;29.18;;;;;;;-2.94;81.28;98112.98;1676900;85;21022;-77
2021/11/25 07:01:10;;;;;;;56.35;26.80;;;;;;;-2.91;81.21;98119.97;1672520;83;21042;-77
2021/11/25 07:03:36;;;;;;;64.53;29.20;;;;;;;-2.89;81.20;98118.30;1641634;86;21455;-77
2021/11/25 07:06:03;;;;;;;57.60;28.15;;;;;;;-2.93;82.01;98122.95;1641291;87;21029;-77
2021/11/25 07:08:30;;;;;;;63.17;29.75;;;;;;;-2.91;81.23;98114.77;1647840;87;21574;-77
2021/11/25 07:10:58;;;;;;;67.80;30.50;;;;;;;-2.90;81.46;98116.97;1641295;87;20990;-77
2021/11/25 07:13:27;;;;;;;77.30;33.95;;;;;;;-2.85;82.04;98115.36;1654498;84;21037;-76
2021/11/25 07:15:54;;;;;;;70.42;32.13;;;;;;;-2.84;81.43;98108.03;1683472;84;21387;-77
2021/11/25 07:18:21;;;;;;;69.40;30.62;;;;;;;-2.89;80.99;98101.45;1681107;84;21037;-77
2021/11/25 07:20:48;;;;;;;82.33;34.08;;;;;;;-2.89;81.19;98113.12;1683796;84;21399;-77
2021/11/25 07:23:14;;;;;;;87.20;39.05;;;;;;;-2.89;81.71;98107.94;1685211;84;21439;-77
2021/11/25 07:25:41;;;;;;;92.42;37.60;;;;;;;-2.86;81.63;98109.73;1685887;83;20994;-77
2021/11/25 07:28:07;;;;;;;86.47;37.13;;;;;;;-2.80;81.76;98108.58;1683381;85;20982;-77
2021/11/25 07:30:35;;;;;;;91.00;38.90;;;;;;;-2.77;81.74;98104.78;1684701;84;21013;-77
2021/11/25 07:33:02;;;;;;;98.60;41.23;;;;;;;-2.76;81.46;98105.23;1683592;84;21033;-77
2021/11/25 07:35:29;;;;;;;94.47;39.75;;;;;;;-2.80;81.70;98102.98;1683396;85;20967;-77
2021/11/25 07:37:57;;;;;;;91.22;39.75;;;;;;;-2.79;81.70;98104.73;1676786;85;21073;-77
2021/11/25 07:40:26;;;;;;;89.13;39.67;;;;;;;-2.80;81.96;98100.39;1673394;83;20993;-76
2021/11/25 07:42:53;;;;;;;95.65;39.27;;;;;;;-2.79;81.81;98102.14;1678638;84;21009;-76
2021/11/25 07:45:23;;;;;;;94.70;41.02;;;;;;;-2.74;81.53;98098.78;1674971;84;21038;-76
2021/11/25 07:47:49;;;;;;;82.17;39.67;;;;;;;-2.71;81.15;98096.25;1685603;84;20965;-77
2021/11/25 07:50:20;;;;;;;94.75;39.67;;;;;;;-2.82;80.99;98091.67;1688289;84;21024;-77
2021/11/25 07:52:49;;;;;;;92.22;39.65;;;;;;;-2.82;81.46;98100.75;1676734;84;21018;-77
2021/11/25 07:55:17;;;;;;;92.00;39.73;;;;;;;-2.80;81.50;98093.91;1672780;84;21022;-77
2021/11/25 07:57:44;;;;;;;90.05;38.70;;;;;;;-2.75;81.37;98097.90;1666534;84;20982;-77
2021/11/25 08:00:14;;;;;;;96.55;40.70;;;;;;;-2.77;81.19;98098.70;1664374;85;21045;-76
2021/11/25 08:02:42;;;;;;;88.22;40.23;;;;;;;-2.80;81.59;98096.50;1658717;86;20989;-77
2021/11/25 08:05:11;;;;;;;97.02;42.30;;;;;;;-2.84;81.87;98092.47;1666042;84;21089;-77
2021/11/25 08:07:40;;;;;;;86.55;38.10;;;;;;;-2.79;81.60;98085.27;1666142;84;21052;-76
2021/11/25 08:10:10;;;;;;;87.05;41.08;;;;;;;-2.79;81.64;98086.98;1676397;84;21048;-76
2021/11/25 08:12:36;;;;;;;90.35;39.40;;;;;;;-2.74;81.79;98085.38;1669049;85;21403;-76
2021/11/25 08:15:06;;;;;;;83.07;36.00;;;;;;;-2.67;82.24;98083.41;1668515;84;21092;-78
2021/11/25 08:17:37;;;;;;;86.32;37.55;;;;;;;-2.62;82.49;98080.05;1660520;84;21041;-76
2021/11/25 08:20:08;;;;;;;81.35;37.42;;;;;;;-2.56;82.44;98072.00;1671831;84;21005;-78
2021/11/25 08:22:35;;;;;;;85.55;36.95;;;;;;;-2.53;82.43;98075.95;1664643;85;21412;-77
2021/11/25 08:25:05;;;;;;;80.07;37.60;;;;;;;-2.41;81.88;98073.20;1669956;85;21085;-79
2021/11/25 08:27:31;;;;;;;92.97;38.83;;;;;;;-2.35;81.72;98066.86;1668720;85;21475;-79
2021/11/25 08:29:58;;;;;;;78.05;36.25;;;;;;;-2.33;81.53;98066.89;1669343;86;21427;-79
2021/11/25 08:32:26;;;;;;;81.78;35.98;;;;;;;-2.34;81.68;98056.92;1678587;84;21014;-79
2021/11/25 08:34:54;;;;;;;87.47;38.17;;;;;;;-2.37;82.16;98057.28;1660274;84;21050;-77
2021/11/25 08:37:21;;;;;;;87.30;37.53;;;;;;;-2.38;82.59;98052.49;1682857;85;21092;-78
2021/11/25 08:39:48;;;;;;;98.40;41.20;;;;;;;-2.32;81.83;98049.17;1682766;84;21050;-78
2021/11/25 08:42:14;;;;;;;93.42;41.80;;;;;;;-2.23;81.84;98047.20;1685778;84;21053;-80
2021/11/25 08:44:41;;;;;;;100.35;43.42;;;;;;;-2.21;81.50;98044.23;1683375;84;21045;-79
2021/11/25 08:47:09;;;;;;;95.80;41.08;;;;;;;-2.14;81.86;98036.61;1685988;85;21021;-80
2021/11/25 08:49:36;;;;;;;98.60;41.33;;;;;;;-2.02;82.04;98037.30;1683157;84;21021;-81
2021/11/25 08:52:05;;;;;;;101.87;41.13;;;;;;;-1.91;81.82;98034.05;1675554;84;21435;-79
2021/11/25 08:54:32;;;;;;;99.52;41.25;;;;;;;-1.82;81.65;98033.34;1669763;84;20995;-79
2021/11/25 08:56:58;;;;;;;90.00;41.05;;;;;;;-1.76;81.72;98039.55;1661050;84;21454;-79
2021/11/25 08:59:25;;;;;;;100.10;42.50;;;;;;;-1.66;81.87;98033.24;1678417;83;20946;-79
2021/11/25 09:01:51;;;;;;;102.65;42.53;;;;;;;-1.63;82.02;98033.28;1680880;85;21048;-79
2021/11/25 09:04:18;;;;;;;93.30;42.00;;;;;;;-1.60;81.67;98020.36;1677848;84;20994;-79
2021/11/25 09:06:44;;;;;;;99.72;43.00;;;;;;;-1.48;82.25;98015.41;1668400;85;21701;-78
2021/11/25 09:09:11;;;;;;;100.00;43.48;;;;;;;-1.32;81.92;98010.49;1668812;84;21057;-79
2021/11/25 09:11:38;;;;;;;96.72;41.48;;;;;;;-1.13;81.76;98010.83;1666708;85;21017;-77
2021/11/25 09:14:05;;;;;;;99.13;44.20;;;;;;;-0.96;81.00;97998.96;1682827;85;21028;-78
2021/11/25 09:16:33;;;;;;;105.45;42.00;;;;;;;-0.91;80.69;98000.77;1681038;85;21527;-78
2021/11/25 09:19:03;;;;;;;99.52;42.10;;;;;;;-0.87;80.69;97991.72;1669668;84;21451;-79
2021/11/25 09:21:30;;;;;;;90.35;43.05;;;;;;;-0.77;80.70;97990.57;1684696;84;21597;-79
2021/11/25 09:24:06;;;;;;;101.38;44.67;;;;;;;-0.73;80.40;97985.45;1686578;84;21006;-77
2021/11/25 09:26:36;;;;;;;97.95;41.25;;;;;;;-0.68;80.08;97982.50;1687063;84;21018;-79
2021/11/25 09:29:05;;;;;;;90.53;39.80;;;;;;;-0.68;80.68;97979.89;1685432;85;21029;-78
2021/11/25 09:31:35;;;;;;;99.05;42.70;;;;;;;-0.68;80.83;97967.29;1669887;84;21061;-77
2021/11/25 09:34:04;;;;;;;91.30;42.58;;;;;;;-0.59;80.87;97972.64;1668413;85;21093;-77
2021/11/25 09:36:31;;;;;;;95.30;42.23;;;;;;;-0.57;80.83;97963.55;1655201;84;21085;-78
2021/11/25 09:38:59;;;;;;;92.30;41.05;;;;;;;-0.55;80.84;97959.23;1678442;84;21552;-77
2021/11/25 09:41:26;;;;;;;86.17;40.20;;;;;;;-0.47;80.77;97960.23;1651287;85;21033;-78
2021/11/25 09:43:53;;;;;;;92.85;40.10;;;;;;;-0.45;80.56;97961.11;1666141;84;21066;-79
2021/11/25 09:46:22;;;;;;;92.65;38.83;;;;;;;-0.45;80.53;97956.34;1660949;85;21491;-76
2021/11/25 09:48:49;;;;;;;85.77;41.00;;;;;;;-0.42;80.20;97950.75;1658444;85;21104;-77
2021/11/25 09:51:16;;;;;;;89.28;39.90;;;;;;;-0.40;80.43;97952.08;1649559;87;22220;-76
2021/11/25 09:53:42;;;;;;;94.70;43.15;;;;;;;-0.34;80.39;97948.24;1658067;85;21033;-77
2021/11/25 09:56:09;;;;;;;92.92;42.62;;;;;;;-0.27;80.11;97946.59;1676968;84;21006;-78
2021/11/25 09:58:38;;;;;;;92.65;40.75;;;;;;;-0.20;80.27;97939.74;1682469;85;21468;-78
2021/11/25 10:01:10;;;;;;;94.95;41.83;;;;;;;-0.12;79.49;97935.93;1679424;85;21026;-76
2021/11/25 10:03:48;;;;;;;92.88;42.85;;;;;;;-0.05;79.66;97939.92;1675295;85;20986;-78
2021/11/25 10:06:08;;;;;;;93.40;40.92;;;;;;;0.00;79.67;97930.88;1671399;85;21010;-77
2021/11/25 10:08:44;;;;;;;91.63;41.65;;;;;;;0.02;79.29;97926.96;1682988;85;21029;-77
2021/11/25 10:11:24;;;;;;;92.15;40.43;;;;;;;0.07;79.22;97930.08;1649175;86;20961;-77
2021/11/25 10:14:06;;;;;;;90.90;41.02;;;;;;;0.15;79.53;97916.24;1651956;86;21060;-77
2021/11/25 10:16:40;;;;;;;87.45;39.35;;;;;;;0.33;79.66;97908.62;1664252;84;21029;-75
2021/11/25 10:19:23;;;;;;;80.75;39.15;;;;;;;0.46;78.58;97904.84;1674191;84;21099;-76
2021/11/25 10:21:56;;;;;;;84.67;39.48;;;;;;;0.59;78.97;97905.83;1672329;84;21001;-76
2021/11/25 10:24:40;;;;;;;82.53;36.73;;;;;;;0.73;78.33;97896.80;1670680;86;21040;-76
2021/11/25 10:27:26;;;;;;;68.95;33.78;;;;;;;0.86;78.06;97905.59;1673848;84;20994;-75
2021/11/25 10:30:16;;;;;;;62.23;31.12;;;;;;;0.91;78.07;97896.07;1650472;85;21014;-77
2021/11/25 10:32:57;;;;;;;69.65;32.93;;;;;;;1.12;78.61;97890.59;1664079;85;21005;-78
2021/11/25 10:35:27;;;;;;;64.32;33.48;;;;;;;2.10;79.02;97876.22;1673970;85;21473;-73
2021/11/25 10:38:20;;;;;;;70.87;32.63;;;;;;;3.25;74.49;97877.11;1677265;84;21065;-76
2021/11/25 10:40:25;;;;;;;54.13;30.35;;;;;;;4.21;72.16;97870.62;1685308;84;21068;-76
2021/11/25 10:42:52;;;;;;;61.83;32.58;;;;;;;5.10;67.02;97863.36;1685953;84;21514;-76
2021/11/25 10:45:21;;;;;;;60.03;31.80;;;;;;;6.03;70.52;97860.16;1675713;84;21021;-76
2021/11/25 10:48:04;;;;;;;59.45;32.03;;;;;;;6.88;65.20;97853.20;1676205;85;21463;-77
2021/11/25 10:50:33;;;;;;;57.25;32.05;;;;;;;7.43;62.62;97861.01;1676244;85;21506;-77
2021/11/25 10:53:09;;;;;;;57.15;32.73;;;;;;;7.94;57.31;97854.72;1677156;85;21076;-77
2021/11/25 10:55:40;;;;;;;59.73;33.00;;;;;;;8.15;57.33;97845.91;1677986;85;21509;-76
2021/11/25 10:58:07;;;;;;;60.28;34.00;;;;;;;8.18;55.18;97836.61;1680763;85;21001;-77
2021/11/25 11:00:41;;;;;;;58.90;34.05;;;;;;;8.64;55.55;97832.50;1674147;84;21435;-77
2021/11/25 11:03:11;;;;;;;;;;;;;;;9.20;52.65;97830.64;1671368;86;21077;-77
2021/11/25 11:05:52;;;;;;;58.68;34.63;;;;;;;9.40;49.50;97816.45;1661258;85;20138;-77
2021/11/25 11:08:20;;;;;;;56.65;34.25;;;;;;;9.73;48.83;97808.47;1654283;85;21047;-76
2021/11/25 11:11:00;;;;;;;61.42;34.83;;;;;;;10.08;51.27;97805.22;1656460;84;21049;-77
2021/11/25 11:16:46;;;;;;;60.98;36.77;;;;;;;10.82;47.35;97817.05;1676082;83;21100;-75
2021/11/25 11:21:41;;;;;;;65.78;36.65;;;;;;;11.45;45.88;97799.86;1671491;85;21026;-75
2021/11/25 11:24:14;;;;;;;63.90;37.90;;;;;;;11.44;44.27;97797.69;1670043;85;21391;-75
2021/11/25 11:26:47;;;;;;;67.95;37.65;;;;;;;11.92;45.76;97780.42;1663850;85;21025;-75
2021/11/25 11:29:19;;;;;;;63.80;37.93;;;;;;;11.85;44.93;97779.81;1670050;84;21050;-75
2021/11/25 11:31:48;;;;;;;69.20;38.58;;;;;;;11.76;43.05;97777.50;1667731;86;21081;-75